Terminal Aerodrome Forecast
Issued by NWS

Home | Current Version | Previous Version | Text Only | Print | Product List | Glossary On
Versions: 1 2 3 4 5 6 7 8 9 10 11 12 13 14 15 16 17 18 19 20 21 22 23 24 25 26 27 28 29 30 31 32 33 34 35 36 37 38 39 40
000
FTUS42 KCAE 190500
TAFDNL
TAF
KDNL 190532Z 1906/2006 00000KT P6SM BKN200
     FM190900 VRB03KT 5SM BR SCT025 BKN150
     FM191100 VRB03KT 4SM BR SCT003 BKN025
     FM191500 09004KT P6SM BKN035
     FM191900 10005KT P6SM SCT035
     FM200000 VRB04KT P6SM SCT150=

USA.gov is the U.S. government's official web portal to all federal, state and local government web resources and services.